SRR901 EGLL-LICC
Flight info
| Callsign | SRR901 |
|---|---|
| Flight time | 2h 37m |
| Altitude | 35000 |
| Route | DET L6 DVR UL9 KONAN DCT KOK DCT SISGA DCT RITAX DCT KRH DCT BATUB DCT TIRUL M738 NATAG DCT LORLO DCT UNTAD DCT DIPVO DCT PELEN Q789 UXUTA |
| Aircraft | B77L/H-SDE1E2E3FGHIJ2J3J4J5M1RWXY/LB1D1 |
Departure
| Time | 2026-05-07 09:48 |
|---|---|
| Airport | London Heathrow Airport (EGLL) |
Arrival
| Time | 2026-05-07 12:26 |
|---|---|
| Airport | Catania-Fontanarossa Airport (LICC) |
| Time | Latitude | Longitude | Altitude | Speed | Heading |
|---|---|---|---|---|---|
| 2026-05-07 09:29 | 51.46106 | -0.47385 | 91 ft | 0 kts | 234° |
| 2026-05-07 09:40 | 51.46116 | -0.47363 | 93 ft | 4 kts | 234° |
| 2026-05-07 09:40 | 51.46132 | -0.47328 | 93 ft | 4 kts | 234° |
| 2026-05-07 09:40 | 51.46144 | -0.47300 | 93 ft | 4 kts | 256° |
| 2026-05-07 09:40 | 51.46141 | -0.47269 | 92 ft | 4 kts | 328° |
| 2026-05-07 09:41 | 51.46134 | -0.47261 | 92 ft | 4 kts | 360° |
| 2026-05-07 09:41 | 51.46162 | -0.47262 | 93 ft | 4 kts | 360° |
| 2026-05-07 09:41 | 51.46188 | -0.47262 | 94 ft | 4 kts | 359° |
| 2026-05-07 09:41 | 51.46210 | -0.47262 | 94 ft | 4 kts | 359° |
| 2026-05-07 09:42 | 51.46237 | -0.47262 | 94 ft | 4 kts | 359° |
| 2026-05-07 09:42 | 51.46242 | -0.47263 | 94 ft | 0 kts | 359° |
| 2026-05-07 09:43 | 51.46256 | -0.47263 | 94 ft | 8 kts | 359° |
| 2026-05-07 09:44 | 51.46311 | -0.47298 | 93 ft | 9 kts | 303° |
| 2026-05-07 09:44 | 51.46333 | -0.47394 | 94 ft | 9 kts | 285° |
| 2026-05-07 09:44 | 51.46338 | -0.47496 | 91 ft | 9 kts | 270° |
| 2026-05-07 09:44 | 51.46337 | -0.47599 | 93 ft | 9 kts | 261° |
| 2026-05-07 09:45 | 51.46313 | -0.47696 | 94 ft | 10 kts | 240° |
| 2026-05-07 09:45 | 51.46280 | -0.47790 | 95 ft | 10 kts | 241° |
| 2026-05-07 09:45 | 51.46256 | -0.47897 | 96 ft | 10 kts | 258° |
| 2026-05-07 09:45 | 51.46251 | -0.48012 | 93 ft | 10 kts | 269° |
| 2026-05-07 09:46 | 51.46250 | -0.48131 | 92 ft | 11 kts | 269° |
| 2026-05-07 09:46 | 51.46249 | -0.48265 | 89 ft | 13 kts | 269° |
| 2026-05-07 09:46 | 51.46249 | -0.48410 | 89 ft | 13 kts | 270° |
| 2026-05-07 09:46 | 51.46254 | -0.48554 | 91 ft | 13 kts | 278° |
| 2026-05-07 09:47 | 51.46290 | -0.48684 | 94 ft | 13 kts | 314° |
| 2026-05-07 09:47 | 51.46370 | -0.48745 | 93 ft | 13 kts | 351° |
| 2026-05-07 09:47 | 51.46456 | -0.48728 | 95 ft | 13 kts | 38° |
| 2026-05-07 09:47 | 51.46478 | -0.48588 | 91 ft | 18 kts | 89° |
| 2026-05-07 09:48 | 51.46478 | -0.47991 | 91 ft | 92 kts | 90° |
| 2026-05-07 09:48 | 51.46480 | -0.46579 | 94 ft | 158 kts | 90° |
| 2026-05-07 09:48 | 51.46486 | -0.44620 | 403 ft | 181 kts | 92° |
| 2026-05-07 09:48 | 51.46480 | -0.42612 | 1140 ft | 180 kts | 93° |
| 2026-05-07 09:49 | 51.46162 | -0.40664 | 1659 ft | 193 kts | 128° |
| 2026-05-07 09:49 | 51.45073 | -0.39213 | 1889 ft | 215 kts | 141° |
| 2026-05-07 09:49 | 51.44223 | -0.37089 | 2106 ft | 242 kts | 102° |
| 2026-05-07 09:49 | 51.43938 | -0.34375 | 2725 ft | 251 kts | 104° |
| 2026-05-07 09:50 | 51.43455 | -0.31654 | 3515 ft | 261 kts | 109° |
| 2026-05-07 09:50 | 51.42864 | -0.28858 | 4377 ft | 266 kts | 109° |
| 2026-05-07 09:50 | 51.42541 | -0.25920 | 5137 ft | 272 kts | 92° |
| 2026-05-07 09:50 | 51.42519 | -0.22873 | 5845 ft | 275 kts | 91° |
| 2026-05-07 09:51 | 51.42498 | -0.19799 | 6640 ft | 278 kts | 91° |
| 2026-05-07 09:51 | 51.42479 | -0.16718 | 7488 ft | 280 kts | 91° |
| 2026-05-07 09:51 | 51.42460 | -0.13579 | 8370 ft | 282 kts | 91° |
| 2026-05-07 09:51 | 51.42393 | -0.10418 | 9206 ft | 283 kts | 98° |
| 2026-05-07 09:52 | 51.41956 | -0.07315 | 10014 ft | 287 kts | 106° |
| 2026-05-07 09:52 | 51.41369 | -0.04261 | 10674 ft | 296 kts | 108° |
| 2026-05-07 09:52 | 51.40722 | -0.00984 | 10894 ft | 322 kts | 108° |
| 2026-05-07 09:52 | 51.40035 | 0.02581 | 11095 ft | 347 kts | 107° |
| 2026-05-07 09:53 | 51.39319 | 0.06423 | 11428 ft | 368 kts | 106° |
| 2026-05-07 09:53 | 51.38605 | 0.10367 | 12068 ft | 378 kts | 106° |
| 2026-05-07 09:53 | 51.37881 | 0.14452 | 12862 ft | 384 kts | 106° |
| 2026-05-07 09:53 | 51.37155 | 0.18601 | 13699 ft | 389 kts | 106° |
| 2026-05-07 09:54 | 51.36423 | 0.22819 | 14448 ft | 394 kts | 106° |
| 2026-05-07 09:54 | 51.35684 | 0.27082 | 15233 ft | 398 kts | 106° |
| 2026-05-07 09:54 | 51.34943 | 0.31370 | 16035 ft | 401 kts | 105° |
| 2026-05-07 09:54 | 51.34292 | 0.35746 | 16756 ft | 406 kts | 103° |
| 2026-05-07 09:55 | 51.33742 | 0.40152 | 17470 ft | 411 kts | 101° |
| 2026-05-07 09:55 | 51.33212 | 0.44681 | 18224 ft | 415 kts | 101° |
| 2026-05-07 09:55 | 51.32681 | 0.49264 | 18730 ft | 419 kts | 101° |
| 2026-05-07 09:55 | 51.32144 | 0.53814 | 19339 ft | 423 kts | 101° |
| 2026-05-07 09:56 | 51.31584 | 0.58471 | 19966 ft | 427 kts | 101° |
| 2026-05-07 09:56 | 51.31011 | 0.63154 | 20606 ft | 431 kts | 102° |
| 2026-05-07 09:56 | 51.30424 | 0.67883 | 21232 ft | 435 kts | 102° |
| 2026-05-07 09:56 | 51.29829 | 0.72645 | 21850 ft | 438 kts | 102° |
| 2026-05-07 09:57 | 51.29226 | 0.77445 | 22488 ft | 442 kts | 102° |
| 2026-05-07 09:57 | 51.28615 | 0.82281 | 23088 ft | 446 kts | 102° |
| 2026-05-07 09:57 | 51.27995 | 0.87172 | 23688 ft | 450 kts | 102° |
| 2026-05-07 09:57 | 51.27375 | 0.92048 | 24188 ft | 454 kts | 102° |
| 2026-05-07 09:58 | 51.26742 | 0.97014 | 24718 ft | 457 kts | 102° |
| 2026-05-07 09:58 | 51.26098 | 1.02009 | 25109 ft | 460 kts | 103° |
| 2026-05-07 09:58 | 51.25170 | 1.06927 | 25172 ft | 465 kts | 113° |
| 2026-05-07 09:58 | 51.23729 | 1.11480 | 25691 ft | 465 kts | 123° |
| 2026-05-07 09:59 | 51.21869 | 1.15712 | 26293 ft | 465 kts | 128° |
| 2026-05-07 09:59 | 51.19844 | 1.19756 | 26804 ft | 467 kts | 130° |
| 2026-05-07 09:59 | 51.17751 | 1.23765 | 27234 ft | 471 kts | 131° |
| 2026-05-07 09:59 | 51.15656 | 1.27726 | 27637 ft | 475 kts | 131° |
| 2026-05-07 10:00 | 51.13507 | 1.31768 | 28078 ft | 478 kts | 131° |
| 2026-05-07 10:00 | 51.11344 | 1.35827 | 28530 ft | 481 kts | 131° |
| 2026-05-07 10:00 | 51.09174 | 1.39890 | 28939 ft | 484 kts | 131° |
| 2026-05-07 10:00 | 51.06975 | 1.44000 | 29060 ft | 491 kts | 131° |
| 2026-05-07 10:01 | 51.04756 | 1.48146 | 29082 ft | 491 kts | 131° |
| 2026-05-07 10:01 | 51.01421 | 1.57402 | 29171 ft | 492 kts | 101° |
| 2026-05-07 10:01 | 51.01231 | 1.62761 | 29498 ft | 496 kts | 85° |
| 2026-05-07 10:02 | 51.01753 | 1.68174 | 29914 ft | 495 kts | 80° |
| 2026-05-07 10:02 | 51.02293 | 1.73595 | 30299 ft | 496 kts | 82° |
| 2026-05-07 10:02 | 51.02765 | 1.79036 | 30719 ft | 496 kts | 83° |
| 2026-05-07 10:02 | 51.03199 | 1.84403 | 31160 ft | 494 kts | 83° |
| 2026-05-07 10:03 | 51.03627 | 1.89823 | 31597 ft | 493 kts | 83° |
| 2026-05-07 10:03 | 51.04054 | 1.95225 | 32013 ft | 492 kts | 83° |
| 2026-05-07 10:03 | 51.04484 | 2.00631 | 32434 ft | 492 kts | 83° |
| 2026-05-07 10:03 | 51.04915 | 2.06033 | 32866 ft | 491 kts | 83° |
| 2026-05-07 10:04 | 51.05344 | 2.11417 | 33286 ft | 490 kts | 83° |
| 2026-05-07 10:04 | 51.05771 | 2.16791 | 33683 ft | 489 kts | 83° |
| 2026-05-07 10:04 | 51.06190 | 2.22088 | 34056 ft | 488 kts | 83° |
| 2026-05-07 10:04 | 51.06612 | 2.27465 | 34349 ft | 488 kts | 83° |
| 2026-05-07 10:05 | 51.07031 | 2.32835 | 34613 ft | 488 kts | 83° |
| 2026-05-07 10:05 | 51.07443 | 2.38158 | 34860 ft | 488 kts | 83° |
| 2026-05-07 10:05 | 51.07858 | 2.43545 | 35012 ft | 491 kts | 83° |
| 2026-05-07 10:06 | 51.08687 | 2.54388 | 35070 ft | 492 kts | 83° |
| 2026-05-07 10:06 | 51.08646 | 2.65097 | 35075 ft | 485 kts | 102° |
| 2026-05-07 10:07 | 51.06385 | 2.75127 | 35080 ft | 481 kts | 119° |
| 2026-05-07 10:07 | 51.03203 | 2.84411 | 35074 ft | 481 kts | 120° |
| 2026-05-07 10:08 | 51.00004 | 2.93785 | 35080 ft | 483 kts | 119° |
| 2026-05-07 10:08 | 50.96823 | 3.03234 | 35076 ft | 484 kts | 119° |
| 2026-05-07 10:09 | 50.93665 | 3.12651 | 35075 ft | 485 kts | 119° |
| 2026-05-07 10:09 | 50.90499 | 3.22060 | 35070 ft | 486 kts | 119° |
| 2026-05-07 10:10 | 50.87296 | 3.31533 | 35059 ft | 486 kts | 119° |
| 2026-05-07 10:10 | 50.84102 | 3.40944 | 35068 ft | 486 kts | 119° |
| 2026-05-07 10:11 | 50.80883 | 3.50392 | 35064 ft | 486 kts | 119° |
| 2026-05-07 10:11 | 50.77675 | 3.59771 | 35076 ft | 486 kts | 120° |
| 2026-05-07 10:12 | 50.74467 | 3.69118 | 35078 ft | 486 kts | 120° |
| 2026-05-07 10:12 | 50.71228 | 3.78519 | 35078 ft | 486 kts | 119° |
| 2026-05-07 10:13 | 50.67994 | 3.87874 | 35079 ft | 486 kts | 120° |
| 2026-05-07 10:13 | 50.64763 | 3.97190 | 35080 ft | 485 kts | 120° |
| 2026-05-07 10:14 | 50.61540 | 4.06511 | 35075 ft | 485 kts | 117° |
| 2026-05-07 10:14 | 50.58631 | 4.16117 | 35081 ft | 485 kts | 116° |
| 2026-05-07 10:15 | 50.55774 | 4.25767 | 35068 ft | 485 kts | 116° |
| 2026-05-07 10:15 | 50.52917 | 4.35335 | 35072 ft | 485 kts | 116° |
| 2026-05-07 10:16 | 50.50020 | 4.44944 | 35080 ft | 486 kts | 116° |
| 2026-05-07 10:16 | 50.47133 | 4.54465 | 35074 ft | 486 kts | 116° |
| 2026-05-07 10:17 | 50.44212 | 4.64062 | 35090 ft | 486 kts | 116° |
| 2026-05-07 10:17 | 50.41287 | 4.73635 | 35078 ft | 486 kts | 116° |
| 2026-05-07 10:18 | 50.38371 | 4.83146 | 35068 ft | 486 kts | 116° |
| 2026-05-07 10:18 | 50.35424 | 4.92717 | 35070 ft | 486 kts | 116° |
| 2026-05-07 10:19 | 50.32498 | 5.02187 | 35058 ft | 485 kts | 116° |
| 2026-05-07 10:19 | 50.29542 | 5.11713 | 35055 ft | 485 kts | 116° |
| 2026-05-07 10:20 | 50.26599 | 5.21162 | 35055 ft | 485 kts | 116° |
| 2026-05-07 10:20 | 50.23628 | 5.30666 | 35058 ft | 485 kts | 116° |
| 2026-05-07 10:21 | 50.20669 | 5.40092 | 35052 ft | 485 kts | 116° |
| 2026-05-07 10:21 | 50.17687 | 5.49559 | 35052 ft | 486 kts | 116° |
| 2026-05-07 10:22 | 50.14707 | 5.58984 | 35051 ft | 486 kts | 116° |
| 2026-05-07 10:22 | 50.11702 | 5.68454 | 35043 ft | 486 kts | 116° |
| 2026-05-07 10:23 | 50.08691 | 5.77910 | 35038 ft | 487 kts | 116° |
| 2026-05-07 10:23 | 50.05485 | 5.87131 | 35035 ft | 486 kts | 120° |
| 2026-05-07 10:24 | 50.02059 | 5.96257 | 35040 ft | 487 kts | 121° |
| 2026-05-07 10:24 | 49.98638 | 6.05326 | 35034 ft | 487 kts | 120° |
| 2026-05-07 10:25 | 49.95234 | 6.14381 | 35031 ft | 487 kts | 120° |
| 2026-05-07 10:25 | 49.91808 | 6.23496 | 35028 ft | 487 kts | 120° |
| 2026-05-07 10:26 | 49.88964 | 6.31045 | 35030 ft | 487 kts | 120° |
| 2026-05-07 10:26 | 49.85545 | 6.40087 | 35021 ft | 488 kts | 121° |
| 2026-05-07 10:27 | 49.82090 | 6.49190 | 35025 ft | 488 kts | 121° |
| 2026-05-07 10:27 | 49.78654 | 6.58210 | 35001 ft | 488 kts | 121° |
| 2026-05-07 10:28 | 49.75186 | 6.67286 | 35007 ft | 488 kts | 121° |
| 2026-05-07 10:28 | 49.71738 | 6.76275 | 35005 ft | 488 kts | 121° |
| 2026-05-07 10:29 | 49.68253 | 6.85332 | 35003 ft | 489 kts | 121° |
| 2026-05-07 10:29 | 49.64774 | 6.94339 | 35007 ft | 489 kts | 121° |
| 2026-05-07 10:30 | 49.59535 | 7.07849 | 35010 ft | 489 kts | 121° |
| 2026-05-07 10:30 | 49.56046 | 7.16807 | 35017 ft | 489 kts | 121° |
| 2026-05-07 10:31 | 49.52526 | 7.25813 | 35015 ft | 490 kts | 122° |
| 2026-05-07 10:31 | 49.49019 | 7.34755 | 35010 ft | 490 kts | 122° |
| 2026-05-07 10:32 | 49.45500 | 7.43697 | 35018 ft | 490 kts | 122° |
| 2026-05-07 10:32 | 49.41958 | 7.52669 | 35024 ft | 490 kts | 122° |
| 2026-05-07 10:33 | 49.38399 | 7.61653 | 35033 ft | 490 kts | 122° |
| 2026-05-07 10:33 | 49.34867 | 7.70538 | 35038 ft | 491 kts | 122° |
| 2026-05-07 10:34 | 49.31295 | 7.79492 | 35026 ft | 492 kts | 122° |
| 2026-05-07 10:34 | 49.27714 | 7.88439 | 35021 ft | 491 kts | 122° |
| 2026-05-07 10:35 | 49.24146 | 7.97325 | 35013 ft | 491 kts | 122° |
| 2026-05-07 10:35 | 49.20555 | 8.06237 | 35015 ft | 491 kts | 123° |
| 2026-05-07 10:36 | 49.16983 | 8.15075 | 35023 ft | 490 kts | 123° |
| 2026-05-07 10:36 | 49.13384 | 8.23949 | 35017 ft | 490 kts | 123° |
| 2026-05-07 10:37 | 49.09776 | 8.32814 | 35010 ft | 490 kts | 123° |
| 2026-05-07 10:37 | 49.06190 | 8.41599 | 35017 ft | 490 kts | 123° |
| 2026-05-07 10:38 | 49.02569 | 8.50443 | 35012 ft | 490 kts | 123° |
| 2026-05-07 10:38 | 48.98379 | 8.58521 | 35007 ft | 488 kts | 137° |
| 2026-05-07 10:39 | 48.93102 | 8.64964 | 35018 ft | 485 kts | 148° |
| 2026-05-07 10:39 | 48.87496 | 8.70597 | 35014 ft | 486 kts | 148° |
| 2026-05-07 10:40 | 48.81847 | 8.76287 | 35020 ft | 486 kts | 148° |
| 2026-05-07 10:40 | 48.76244 | 8.81980 | 35022 ft | 487 kts | 148° |
| 2026-05-07 10:41 | 48.70601 | 8.87724 | 35017 ft | 488 kts | 148° |
| 2026-05-07 10:41 | 48.64943 | 8.93469 | 35025 ft | 489 kts | 148° |
| 2026-05-07 10:42 | 48.59304 | 8.99177 | 35018 ft | 490 kts | 148° |
| 2026-05-07 10:42 | 48.53618 | 9.04916 | 35016 ft | 490 kts | 148° |
| 2026-05-07 10:43 | 48.47970 | 9.10599 | 35008 ft | 490 kts | 148° |
| 2026-05-07 10:43 | 48.42280 | 9.16309 | 35016 ft | 490 kts | 148° |
| 2026-05-07 10:44 | 48.36603 | 9.21992 | 35013 ft | 489 kts | 148° |
| 2026-05-07 10:44 | 48.30967 | 9.27618 | 35018 ft | 488 kts | 148° |
| 2026-05-07 10:45 | 48.25298 | 9.33261 | 35007 ft | 488 kts | 148° |
| 2026-05-07 10:45 | 48.19640 | 9.38879 | 35014 ft | 487 kts | 148° |
| 2026-05-07 10:46 | 48.13998 | 9.44466 | 35015 ft | 486 kts | 148° |
| 2026-05-07 10:46 | 48.08345 | 9.50050 | 35020 ft | 486 kts | 149° |
| 2026-05-07 10:47 | 48.02723 | 9.55589 | 35007 ft | 486 kts | 149° |
| 2026-05-07 10:47 | 47.97099 | 9.61235 | 35018 ft | 487 kts | 148° |
| 2026-05-07 10:48 | 47.91518 | 9.66975 | 35024 ft | 487 kts | 147° |
| 2026-05-07 10:48 | 47.85949 | 9.72687 | 35028 ft | 488 kts | 148° |
| 2026-05-07 10:49 | 47.80329 | 9.78412 | 35019 ft | 489 kts | 148° |
| 2026-05-07 10:49 | 47.74733 | 9.84087 | 35029 ft | 489 kts | 148° |
| 2026-05-07 10:50 | 47.69100 | 9.89784 | 35040 ft | 488 kts | 148° |
| 2026-05-07 10:50 | 47.63508 | 9.95424 | 35030 ft | 488 kts | 148° |
| 2026-05-07 10:51 | 47.57871 | 10.01097 | 35036 ft | 487 kts | 148° |
| 2026-05-07 10:51 | 47.52291 | 10.06698 | 35020 ft | 487 kts | 148° |
| 2026-05-07 10:52 | 47.46663 | 10.12329 | 35022 ft | 487 kts | 149° |
| 2026-05-07 10:52 | 47.41075 | 10.17909 | 35022 ft | 487 kts | 149° |
| 2026-05-07 10:53 | 47.35459 | 10.23503 | 35022 ft | 486 kts | 149° |
| 2026-05-07 10:53 | 47.29847 | 10.29074 | 35015 ft | 485 kts | 149° |
| 2026-05-07 10:54 | 47.24239 | 10.34632 | 35003 ft | 484 kts | 149° |
| 2026-05-07 10:54 | 47.18675 | 10.40133 | 35003 ft | 483 kts | 149° |
| 2026-05-07 10:55 | 47.13110 | 10.45616 | 35000 ft | 484 kts | 149° |
| 2026-05-07 10:55 | 47.07465 | 10.51013 | 34988 ft | 481 kts | 154° |
| 2026-05-07 10:56 | 47.01383 | 10.54989 | 34972 ft | 475 kts | 166° |
| 2026-05-07 10:56 | 46.95076 | 10.57744 | 34973 ft | 475 kts | 167° |
| 2026-05-07 10:57 | 46.88728 | 10.60568 | 34966 ft | 476 kts | 166° |
| 2026-05-07 10:57 | 46.82418 | 10.63418 | 34958 ft | 477 kts | 166° |
| 2026-05-07 10:58 | 46.76063 | 10.66263 | 34961 ft | 477 kts | 167° |
| 2026-05-07 10:58 | 46.69678 | 10.68868 | 34950 ft | 473 kts | 171° |
| 2026-05-07 10:59 | 46.63254 | 10.70936 | 34943 ft | 471 kts | 172° |
| 2026-05-07 10:59 | 46.56866 | 10.72988 | 34948 ft | 471 kts | 171° |
| 2026-05-07 11:00 | 46.50493 | 10.75060 | 34973 ft | 471 kts | 171° |
| 2026-05-07 11:00 | 46.44083 | 10.77148 | 34959 ft | 472 kts | 172° |
| 2026-05-07 11:01 | 46.37654 | 10.79235 | 35005 ft | 472 kts | 172° |
| 2026-05-07 11:01 | 46.31260 | 10.81309 | 35014 ft | 473 kts | 172° |
| 2026-05-07 11:02 | 46.24823 | 10.83388 | 35002 ft | 473 kts | 172° |
| 2026-05-07 11:02 | 46.18471 | 10.86113 | 35008 ft | 478 kts | 163° |
| 2026-05-07 11:03 | 46.12305 | 10.89576 | 35013 ft | 478 kts | 163° |
| 2026-05-07 11:03 | 46.06095 | 10.93044 | 34980 ft | 478 kts | 163° |
| 2026-05-07 11:04 | 45.99887 | 10.96466 | 34958 ft | 476 kts | 164° |
| 2026-05-07 11:04 | 45.93684 | 10.99856 | 34955 ft | 475 kts | 164° |
| 2026-05-07 11:05 | 45.87505 | 11.03227 | 34962 ft | 474 kts | 164° |
| 2026-05-07 11:05 | 45.82401 | 11.06005 | 34938 ft | 475 kts | 165° |
| 2026-05-07 11:06 | 45.76049 | 11.09456 | 34965 ft | 472 kts | 165° |
| 2026-05-07 11:06 | 45.69925 | 11.12778 | 34980 ft | 473 kts | 165° |
| 2026-05-07 11:07 | 45.63737 | 11.16118 | 34982 ft | 476 kts | 165° |
| 2026-05-07 11:07 | 45.57562 | 11.19450 | 34970 ft | 476 kts | 165° |
| 2026-05-07 11:08 | 45.51342 | 11.22799 | 34969 ft | 477 kts | 165° |
| 2026-05-07 11:08 | 45.45123 | 11.26140 | 34991 ft | 477 kts | 165° |
| 2026-05-07 11:09 | 45.38939 | 11.29453 | 34968 ft | 477 kts | 165° |
| 2026-05-07 11:09 | 45.32707 | 11.32784 | 34972 ft | 477 kts | 165° |
| 2026-05-07 11:10 | 45.26514 | 11.36086 | 34981 ft | 478 kts | 166° |
| 2026-05-07 11:10 | 45.20284 | 11.39400 | 34961 ft | 478 kts | 166° |
| 2026-05-07 11:11 | 45.14047 | 11.42711 | 34976 ft | 477 kts | 166° |
| 2026-05-07 11:11 | 45.07862 | 11.45984 | 34983 ft | 477 kts | 166° |
| 2026-05-07 11:12 | 45.01581 | 11.48927 | 34983 ft | 474 kts | 169° |
| 2026-05-07 11:12 | 44.95254 | 11.51642 | 34965 ft | 474 kts | 169° |
| 2026-05-07 11:13 | 44.88980 | 11.54340 | 34983 ft | 473 kts | 169° |
| 2026-05-07 11:13 | 44.83731 | 11.56627 | 34987 ft | 474 kts | 169° |
| 2026-05-07 11:14 | 44.76402 | 11.59839 | 34977 ft | 473 kts | 169° |
| 2026-05-07 11:14 | 44.71125 | 11.62151 | 34988 ft | 473 kts | 169° |
| 2026-05-07 11:15 | 44.64858 | 11.64889 | 34990 ft | 473 kts | 169° |
| 2026-05-07 11:15 | 44.58554 | 11.67636 | 34966 ft | 474 kts | 170° |
| 2026-05-07 11:16 | 44.52290 | 11.70359 | 34989 ft | 474 kts | 170° |
| 2026-05-07 11:16 | 44.45978 | 11.73096 | 34985 ft | 474 kts | 170° |
| 2026-05-07 11:17 | 44.39710 | 11.75808 | 34998 ft | 474 kts | 170° |
| 2026-05-07 11:17 | 44.33396 | 11.78534 | 34993 ft | 474 kts | 170° |
| 2026-05-07 11:18 | 44.27110 | 11.81241 | 35000 ft | 474 kts | 170° |
| 2026-05-07 11:18 | 44.20783 | 11.83960 | 34997 ft | 475 kts | 170° |
| 2026-05-07 11:19 | 44.14478 | 11.86663 | 35002 ft | 476 kts | 170° |
| 2026-05-07 11:19 | 44.08141 | 11.89375 | 35002 ft | 476 kts | 170° |
| 2026-05-07 11:20 | 44.01791 | 11.92087 | 35009 ft | 476 kts | 170° |
| 2026-05-07 11:20 | 43.95485 | 11.94774 | 34994 ft | 475 kts | 170° |
| 2026-05-07 11:21 | 43.89136 | 11.97473 | 35002 ft | 476 kts | 170° |
| 2026-05-07 11:21 | 43.82837 | 12.00143 | 35023 ft | 476 kts | 170° |
| 2026-05-07 11:22 | 43.76489 | 12.02828 | 35003 ft | 477 kts | 171° |
| 2026-05-07 11:22 | 43.70127 | 12.05513 | 35008 ft | 477 kts | 170° |
| 2026-05-07 11:23 | 43.63804 | 12.08177 | 35019 ft | 478 kts | 170° |
| 2026-05-07 11:23 | 43.57431 | 12.10856 | 34992 ft | 478 kts | 170° |
| 2026-05-07 11:24 | 43.51088 | 12.13517 | 35024 ft | 477 kts | 170° |
| 2026-05-07 11:24 | 43.44718 | 12.16183 | 35025 ft | 477 kts | 170° |
| 2026-05-07 11:25 | 43.38408 | 12.18818 | 35016 ft | 476 kts | 170° |
| 2026-05-07 11:25 | 43.32063 | 12.21462 | 35005 ft | 475 kts | 170° |
| 2026-05-07 11:26 | 43.25760 | 12.24080 | 35027 ft | 475 kts | 170° |
| 2026-05-07 11:26 | 43.19420 | 12.26712 | 35027 ft | 474 kts | 170° |
| 2026-05-07 11:27 | 43.13135 | 12.29314 | 35019 ft | 475 kts | 171° |
| 2026-05-07 11:27 | 43.06790 | 12.31930 | 35013 ft | 477 kts | 171° |
| 2026-05-07 11:28 | 43.00411 | 12.34560 | 35021 ft | 478 kts | 170° |
| 2026-05-07 11:28 | 42.94060 | 12.37173 | 35000 ft | 478 kts | 171° |
| 2026-05-07 11:29 | 42.87675 | 12.39794 | 35016 ft | 479 kts | 171° |
| 2026-05-07 11:29 | 42.81314 | 12.42398 | 35001 ft | 479 kts | 171° |
| 2026-05-07 11:30 | 42.74911 | 12.45014 | 34982 ft | 479 kts | 171° |
| 2026-05-07 11:30 | 42.68565 | 12.47604 | 35004 ft | 478 kts | 171° |
| 2026-05-07 11:31 | 42.62182 | 12.50201 | 35014 ft | 477 kts | 171° |
| 2026-05-07 11:31 | 42.55850 | 12.52771 | 35023 ft | 476 kts | 171° |
| 2026-05-07 11:32 | 42.46315 | 12.56633 | 35041 ft | 475 kts | 171° |
| 2026-05-07 11:33 | 42.39989 | 12.59186 | 35036 ft | 475 kts | 171° |
| 2026-05-07 11:33 | 42.33631 | 12.61749 | 35020 ft | 476 kts | 171° |
| 2026-05-07 11:34 | 42.27323 | 12.64285 | 35020 ft | 475 kts | 171° |
| 2026-05-07 11:34 | 42.20980 | 12.66830 | 35021 ft | 474 kts | 171° |
| 2026-05-07 11:35 | 42.14671 | 12.69356 | 35018 ft | 474 kts | 171° |
| 2026-05-07 11:35 | 42.08330 | 12.71890 | 35020 ft | 474 kts | 171° |
| 2026-05-07 11:36 | 42.02006 | 12.74412 | 35017 ft | 474 kts | 171° |
| 2026-05-07 11:36 | 41.95708 | 12.76919 | 35025 ft | 473 kts | 171° |
| 2026-05-07 11:37 | 41.89378 | 12.79433 | 34993 ft | 473 kts | 171° |
| 2026-05-07 11:37 | 41.83082 | 12.81928 | 35005 ft | 473 kts | 171° |
| 2026-05-07 11:38 | 41.76749 | 12.84432 | 35019 ft | 473 kts | 171° |
| 2026-05-07 11:38 | 41.70463 | 12.86913 | 34997 ft | 474 kts | 171° |
| 2026-05-07 11:39 | 41.64122 | 12.89410 | 34996 ft | 473 kts | 172° |
| 2026-05-07 11:39 | 41.57788 | 12.91900 | 34997 ft | 473 kts | 172° |
| 2026-05-07 11:40 | 41.51489 | 12.94371 | 35008 ft | 474 kts | 172° |
| 2026-05-07 11:40 | 41.45142 | 12.96855 | 34995 ft | 474 kts | 172° |
| 2026-05-07 11:41 | 41.38832 | 12.99321 | 35008 ft | 474 kts | 172° |
| 2026-05-07 11:41 | 41.32481 | 13.01797 | 35016 ft | 474 kts | 172° |
| 2026-05-07 11:42 | 41.26164 | 13.04255 | 35018 ft | 475 kts | 172° |
| 2026-05-07 11:42 | 41.19843 | 13.06710 | 35004 ft | 475 kts | 172° |
| 2026-05-07 11:43 | 41.13475 | 13.09176 | 35017 ft | 476 kts | 173° |
| 2026-05-07 11:43 | 41.07088 | 13.11645 | 35017 ft | 478 kts | 172° |
| 2026-05-07 11:44 | 41.00732 | 13.14098 | 34974 ft | 479 kts | 173° |
| 2026-05-07 11:44 | 40.94300 | 13.16575 | 35010 ft | 481 kts | 173° |
| 2026-05-07 11:45 | 40.87878 | 13.19042 | 35019 ft | 484 kts | 173° |
| 2026-05-07 11:45 | 40.81387 | 13.21532 | 35015 ft | 486 kts | 173° |
| 2026-05-07 11:46 | 40.74892 | 13.24020 | 35005 ft | 488 kts | 174° |
| 2026-05-07 11:46 | 40.68342 | 13.26521 | 35010 ft | 491 kts | 174° |
| 2026-05-07 11:47 | 40.61746 | 13.29036 | 35007 ft | 494 kts | 174° |
| 2026-05-07 11:47 | 40.55165 | 13.31542 | 34987 ft | 495 kts | 174° |
| 2026-05-07 11:48 | 40.48534 | 13.34061 | 35011 ft | 496 kts | 174° |
| 2026-05-07 11:48 | 40.41925 | 13.36566 | 35011 ft | 496 kts | 174° |
| 2026-05-07 11:49 | 40.35286 | 13.39077 | 34991 ft | 496 kts | 174° |
| 2026-05-07 11:49 | 40.28638 | 13.41589 | 34984 ft | 496 kts | 176° |
| 2026-05-07 11:50 | 40.22043 | 13.44072 | 34993 ft | 496 kts | 176° |
| 2026-05-07 11:50 | 40.15396 | 13.46569 | 34995 ft | 496 kts | 176° |
| 2026-05-07 11:51 | 40.08740 | 13.49066 | 34976 ft | 496 kts | 176° |
| 2026-05-07 11:51 | 40.02092 | 13.51557 | 34980 ft | 495 kts | 177° |
| 2026-05-07 11:52 | 39.95497 | 13.54020 | 34993 ft | 496 kts | 177° |
| 2026-05-07 11:52 | 39.88856 | 13.56495 | 34984 ft | 495 kts | 177° |
| 2026-05-07 11:53 | 39.82246 | 13.58954 | 34982 ft | 495 kts | 177° |
| 2026-05-07 11:53 | 39.75612 | 13.61417 | 34970 ft | 495 kts | 177° |
| 2026-05-07 11:54 | 39.68974 | 13.63877 | 34972 ft | 495 kts | 177° |
| 2026-05-07 11:54 | 39.62378 | 13.66318 | 34968 ft | 494 kts | 177° |
| 2026-05-07 11:55 | 39.55757 | 13.68762 | 34966 ft | 494 kts | 177° |
| 2026-05-07 11:55 | 39.49162 | 13.71191 | 34968 ft | 493 kts | 177° |
| 2026-05-07 11:56 | 39.42581 | 13.73610 | 34920 ft | 493 kts | 177° |
| 2026-05-07 11:56 | 39.35976 | 13.76034 | 34952 ft | 492 kts | 177° |
| 2026-05-07 11:57 | 39.29414 | 13.78437 | 34954 ft | 492 kts | 177° |
| 2026-05-07 11:57 | 39.22819 | 13.80847 | 34953 ft | 492 kts | 177° |
| 2026-05-07 11:58 | 39.16224 | 13.83252 | 34934 ft | 491 kts | 177° |
| 2026-05-07 11:58 | 39.09647 | 13.85647 | 34927 ft | 491 kts | 177° |
| 2026-05-07 11:59 | 39.03107 | 13.88022 | 34933 ft | 491 kts | 176° |
| 2026-05-07 11:59 | 38.96499 | 13.90417 | 34750 ft | 495 kts | 176° |
| 2026-05-07 11:59 | 38.93132 | 13.91622 | 33889 ft | 506 kts | 175° |
| 2026-05-07 12:00 | 38.89735 | 13.92845 | 32994 ft | 506 kts | 175° |
| 2026-05-07 12:00 | 38.86386 | 13.94059 | 32118 ft | 506 kts | 175° |
| 2026-05-07 12:00 | 38.82987 | 13.95293 | 31220 ft | 506 kts | 175° |
| 2026-05-07 12:00 | 38.79582 | 13.96526 | 30319 ft | 507 kts | 174° |
| 2026-05-07 12:01 | 38.76197 | 13.97753 | 29665 ft | 502 kts | 174° |
| 2026-05-07 12:01 | 38.72849 | 13.98966 | 28918 ft | 497 kts | 174° |
| 2026-05-07 12:01 | 38.69546 | 14.00160 | 28311 ft | 489 kts | 173° |
| 2026-05-07 12:01 | 38.66319 | 14.01324 | 27712 ft | 482 kts | 173° |
| 2026-05-07 12:02 | 38.63099 | 14.02482 | 27111 ft | 476 kts | 173° |
| 2026-05-07 12:02 | 38.59921 | 14.03621 | 26526 ft | 471 kts | 173° |
| 2026-05-07 12:02 | 38.56816 | 14.04732 | 25951 ft | 466 kts | 172° |
| 2026-05-07 12:02 | 38.53707 | 14.05842 | 25404 ft | 461 kts | 172° |
| 2026-05-07 12:03 | 38.50621 | 14.06944 | 24840 ft | 456 kts | 172° |
| 2026-05-07 12:03 | 38.48598 | 14.07665 | 24462 ft | 454 kts | 171° |
| 2026-05-07 12:03 | 38.45564 | 14.08747 | 23914 ft | 450 kts | 171° |
| 2026-05-07 12:03 | 38.41588 | 14.10164 | 23137 ft | 445 kts | 171° |
| 2026-05-07 12:04 | 38.38621 | 14.11220 | 22531 ft | 441 kts | 170° |
| 2026-05-07 12:04 | 38.35684 | 14.12266 | 21987 ft | 436 kts | 170° |
| 2026-05-07 12:04 | 38.33751 | 14.12955 | 21632 ft | 433 kts | 170° |
| 2026-05-07 12:04 | 38.30861 | 14.13983 | 21112 ft | 428 kts | 170° |
| 2026-05-07 12:05 | 38.28002 | 14.14998 | 20598 ft | 424 kts | 169° |
| 2026-05-07 12:05 | 38.25171 | 14.16003 | 20079 ft | 420 kts | 169° |
| 2026-05-07 12:05 | 38.22361 | 14.16997 | 19585 ft | 416 kts | 169° |
| 2026-05-07 12:05 | 38.19579 | 14.17974 | 19095 ft | 413 kts | 169° |
| 2026-05-07 12:06 | 38.16819 | 14.18945 | 18609 ft | 409 kts | 169° |
| 2026-05-07 12:06 | 38.14107 | 14.19901 | 18099 ft | 407 kts | 169° |
| 2026-05-07 12:06 | 38.11388 | 14.20861 | 17544 ft | 404 kts | 168° |
| 2026-05-07 12:06 | 38.08692 | 14.21815 | 17010 ft | 400 kts | 168° |
| 2026-05-07 12:07 | 38.06023 | 14.22760 | 16527 ft | 396 kts | 168° |
| 2026-05-07 12:07 | 38.03374 | 14.23695 | 16056 ft | 392 kts | 168° |
| 2026-05-07 12:07 | 38.00758 | 14.24619 | 15557 ft | 388 kts | 169° |
| 2026-05-07 12:07 | 37.98198 | 14.25522 | 15088 ft | 384 kts | 169° |
| 2026-05-07 12:08 | 37.95631 | 14.26427 | 14614 ft | 380 kts | 169° |
| 2026-05-07 12:08 | 37.93094 | 14.27320 | 14167 ft | 376 kts | 169° |
| 2026-05-07 12:08 | 37.90584 | 14.28200 | 13693 ft | 372 kts | 169° |
| 2026-05-07 12:08 | 37.88120 | 14.29062 | 13189 ft | 369 kts | 168° |
| 2026-05-07 12:09 | 37.85667 | 14.29925 | 12727 ft | 365 kts | 168° |
| 2026-05-07 12:09 | 37.83231 | 14.30782 | 12249 ft | 362 kts | 169° |
| 2026-05-07 12:09 | 37.80818 | 14.31627 | 11804 ft | 357 kts | 168° |
| 2026-05-07 12:09 | 37.78434 | 14.32465 | 11368 ft | 354 kts | 169° |
| 2026-05-07 12:10 | 37.76072 | 14.33296 | 10986 ft | 348 kts | 170° |
| 2026-05-07 12:10 | 37.73844 | 14.34080 | 10807 ft | 315 kts | 168° |
| 2026-05-07 12:10 | 37.71832 | 14.34788 | 10666 ft | 285 kts | 168° |
| 2026-05-07 12:10 | 37.69983 | 14.35433 | 10571 ft | 269 kts | 168° |
| 2026-05-07 12:11 | 37.68223 | 14.36056 | 10454 ft | 257 kts | 171° |
| 2026-05-07 12:11 | 37.66519 | 14.36650 | 10370 ft | 254 kts | 172° |
| 2026-05-07 12:11 | 37.64801 | 14.37233 | 10296 ft | 264 kts | 171° |
| 2026-05-07 12:11 | 37.63003 | 14.37850 | 10168 ft | 269 kts | 171° |
| 2026-05-07 12:12 | 37.61204 | 14.38471 | 10058 ft | 264 kts | 168° |
| 2026-05-07 12:12 | 37.59465 | 14.39089 | 9966 ft | 255 kts | 169° |
| 2026-05-07 12:12 | 37.57763 | 14.39687 | 9764 ft | 260 kts | 170° |
| 2026-05-07 12:12 | 37.55995 | 14.40298 | 9471 ft | 264 kts | 170° |
| 2026-05-07 12:13 | 37.54218 | 14.40915 | 9177 ft | 263 kts | 169° |
| 2026-05-07 12:13 | 37.52485 | 14.41520 | 8876 ft | 258 kts | 168° |
| 2026-05-07 12:13 | 37.50771 | 14.42119 | 8583 ft | 252 kts | 168° |
| 2026-05-07 12:13 | 37.49093 | 14.42703 | 8305 ft | 246 kts | 167° |
| 2026-05-07 12:14 | 37.47460 | 14.43269 | 8027 ft | 240 kts | 167° |
| 2026-05-07 12:14 | 37.45851 | 14.43827 | 7769 ft | 241 kts | 166° |
| 2026-05-07 12:14 | 37.44218 | 14.44408 | 7514 ft | 245 kts | 161° |
| 2026-05-07 12:14 | 37.42793 | 14.45571 | 7218 ft | 248 kts | 133° |
| 2026-05-07 12:15 | 37.41945 | 14.47447 | 6996 ft | 247 kts | 112° |
| 2026-05-07 12:15 | 37.41675 | 14.49532 | 6756 ft | 247 kts | 92° |
| 2026-05-07 12:15 | 37.41843 | 14.51721 | 6566 ft | 256 kts | 85° |
| 2026-05-07 12:15 | 37.42133 | 14.53963 | 6321 ft | 259 kts | 86° |
| 2026-05-07 12:16 | 37.42390 | 14.56188 | 6048 ft | 255 kts | 87° |
| 2026-05-07 12:16 | 37.42601 | 14.58353 | 5800 ft | 250 kts | 87° |
| 2026-05-07 12:16 | 37.42793 | 14.60513 | 5558 ft | 244 kts | 89° |
| 2026-05-07 12:16 | 37.42972 | 14.62625 | 5307 ft | 240 kts | 89° |
| 2026-05-07 12:17 | 37.43145 | 14.64680 | 5077 ft | 233 kts | 89° |
| 2026-05-07 12:17 | 37.43312 | 14.66676 | 4856 ft | 226 kts | 87° |
| 2026-05-07 12:17 | 37.43477 | 14.68615 | 4643 ft | 219 kts | 88° |
| 2026-05-07 12:17 | 37.43633 | 14.70468 | 4433 ft | 210 kts | 88° |
| 2026-05-07 12:18 | 37.43782 | 14.72248 | 4308 ft | 199 kts | 88° |
| 2026-05-07 12:18 | 37.43925 | 14.73956 | 4235 ft | 199 kts | 88° |
| 2026-05-07 12:18 | 37.44074 | 14.75739 | 4162 ft | 204 kts | 88° |
| 2026-05-07 12:18 | 37.44221 | 14.77472 | 3958 ft | 193 kts | 88° |
| 2026-05-07 12:19 | 37.44359 | 14.79080 | 3802 ft | 182 kts | 88° |
| 2026-05-07 12:19 | 37.44415 | 14.79746 | 3705 ft | 178 kts | 88° |
| 2026-05-07 12:20 | 37.44507 | 14.80833 | 3545 ft | 170 kts | 88° |
| 2026-05-07 12:21 | 37.44625 | 14.82248 | 3381 ft | 156 kts | 88° |
| 2026-05-07 12:21 | 37.44734 | 14.83556 | 3255 ft | 150 kts | 88° |
| 2026-05-07 12:21 | 37.44843 | 14.84864 | 3119 ft | 149 kts | 87° |
| 2026-05-07 12:21 | 37.44953 | 14.86172 | 3019 ft | 153 kts | 87° |
| 2026-05-07 12:22 | 37.45064 | 14.87479 | 2805 ft | 147 kts | 86° |
| 2026-05-07 12:22 | 37.45170 | 14.88752 | 2623 ft | 144 kts | 86° |
| 2026-05-07 12:22 | 37.45273 | 14.89969 | 2426 ft | 140 kts | 86° |
| 2026-05-07 12:22 | 37.45375 | 14.91171 | 2255 ft | 138 kts | 86° |
| 2026-05-07 12:23 | 37.45477 | 14.92398 | 2063 ft | 143 kts | 87° |
| 2026-05-07 12:23 | 37.45581 | 14.93631 | 1877 ft | 140 kts | 84° |
| 2026-05-07 12:23 | 37.45683 | 14.94831 | 1687 ft | 138 kts | 84° |
| 2026-05-07 12:23 | 37.45780 | 14.95986 | 1498 ft | 131 kts | 84° |
| 2026-05-07 12:24 | 37.45878 | 14.97141 | 1342 ft | 133 kts | 84° |
| 2026-05-07 12:24 | 37.45967 | 14.98218 | 1148 ft | 116 kts | 84° |
| 2026-05-07 12:24 | 37.46060 | 14.99299 | 1008 ft | 127 kts | 82° |
| 2026-05-07 12:24 | 37.46151 | 15.00362 | 866 ft | 120 kts | 83° |
| 2026-05-07 12:25 | 37.46237 | 15.01417 | 716 ft | 120 kts | 78° |
| 2026-05-07 12:25 | 37.46329 | 15.02456 | 546 ft | 126 kts | 77° |
| 2026-05-07 12:25 | 37.46418 | 15.03516 | 389 ft | 118 kts | 77° |
| 2026-05-07 12:25 | 37.46499 | 15.04554 | 220 ft | 123 kts | 76° |
| 2026-05-07 12:26 | 37.46590 | 15.05621 | 68 ft | 121 kts | 76° |
| 2026-05-07 12:26 | 37.46673 | 15.06563 | 52 ft | 86 kts | 84° |
| 2026-05-07 12:26 | 37.46716 | 15.07080 | 53 ft | 33 kts | 83° |
| 2026-05-07 12:26 | 37.46739 | 15.07318 | 54 ft | 28 kts | 84° |
| 2026-05-07 12:27 | 37.46769 | 15.07563 | 51 ft | 28 kts | 72° |
| 2026-05-07 12:27 | 37.46835 | 15.07736 | 50 ft | 9 kts | 56° |
| 2026-05-07 12:27 | 37.46874 | 15.07795 | 50 ft | 9 kts | 33° |
| 2026-05-07 12:27 | 37.46928 | 15.07781 | 49 ft | 9 kts | 305° |
| 2026-05-07 12:28 | 37.46933 | 15.07705 | 53 ft | 9 kts | 265° |
| 2026-05-07 12:28 | 37.46928 | 15.07627 | 56 ft | 9 kts | 266° |
| 2026-05-07 12:28 | 37.46923 | 15.07548 | 50 ft | 9 kts | 262° |
| 2026-05-07 12:28 | 37.46911 | 15.07450 | 55 ft | 16 kts | 262° |
| 2026-05-07 12:29 | 37.46900 | 15.07289 | 53 ft | 19 kts | 264° |
| 2026-05-07 12:29 | 37.46885 | 15.07126 | 53 ft | 19 kts | 264° |
| 2026-05-07 12:29 | 37.46871 | 15.06965 | 56 ft | 19 kts | 264° |
| 2026-05-07 12:29 | 37.46861 | 15.06844 | 54 ft | 8 kts | 264° |
| 2026-05-07 12:30 | 37.46857 | 15.06777 | 51 ft | 8 kts | 265° |
| 2026-05-07 12:30 | 37.46852 | 15.06708 | 50 ft | 8 kts | 265° |
| 2026-05-07 12:30 | 37.46847 | 15.06639 | 51 ft | 9 kts | 263° |
| 2026-05-07 12:30 | 37.46836 | 15.06529 | 53 ft | 14 kts | 263° |
| 2026-05-07 12:31 | 37.46824 | 15.06403 | 50 ft | 14 kts | 264° |
| 2026-05-07 12:31 | 37.46813 | 15.06277 | 54 ft | 14 kts | 264° |
| 2026-05-07 12:31 | 37.46811 | 15.06222 | 53 ft | 4 kts | 281° |
| 2026-05-07 12:31 | 37.46835 | 15.06198 | 51 ft | 5 kts | 339° |
| 2026-05-07 12:32 | 37.46868 | 15.06193 | 52 ft | 5 kts | 354° |
| 2026-05-07 12:32 | 37.46879 | 15.06191 | 49 ft | 0 kts | 354° |